createdAt,value
2022-08-07T00:01:44.340Z,101739.09
2022-08-07T00:05:05.811Z,101737.09
2022-08-07T00:08:27.104Z,101727.28
2022-08-07T00:11:55.443Z,101743.84
2022-08-07T00:15:19.809Z,101741.56
2022-08-07T00:18:42.503Z,101737.41
2022-08-07T00:22:04.564Z,101730.44
2022-08-07T00:25:26.021Z,101734.50
2022-08-07T00:28:56.803Z,101736.06
2022-08-07T00:32:19.595Z,101726.53
2022-08-07T00:35:51.081Z,101722.03
2022-08-07T00:39:16.945Z,101724.31
2022-08-07T00:42:39.454Z,101721.41
2022-08-07T00:46:02.366Z,101720.00
2022-08-07T00:49:24.814Z,101723.16
2022-08-07T00:53:09.125Z,101721.13
2022-08-07T00:56:34.017Z,101712.25
2022-08-07T00:59:55.495Z,101716.09
2022-08-07T01:03:16.916Z,101715.09
2022-08-07T01:06:39.370Z,101714.84
2022-08-07T01:10:05.182Z,101716.09
2022-08-07T01:13:28.437Z,101707.03
2022-08-07T01:16:57.899Z,101712.06
2022-08-07T01:20:30.630Z,101713.94
2022-08-07T01:23:55.641Z,101713.53
2022-08-07T01:27:19.544Z,101706.94
2022-08-07T01:30:42.910Z,101695.44
2022-08-07T01:34:06.995Z,101689.06
2022-08-07T01:37:35.280Z,101699.09
2022-08-07T01:41:02.006Z,101692.47
2022-08-07T01:44:24.773Z,101697.03
2022-08-07T01:48:18.212Z,101690.66
2022-08-07T01:52:01.960Z,101680.13
2022-08-07T01:55:22.031Z,101676.50
2022-08-07T01:58:51.721Z,101678.13
2022-08-07T02:02:32.883Z,101671.16
2022-08-07T02:06:08.890Z,101668.81
2022-08-07T02:09:53.083Z,101661.63
2022-08-07T02:13:18.044Z,101667.75
2022-08-07T02:16:50.302Z,101663.91
2022-08-07T02:20:19.733Z,101656.38
2022-08-07T02:23:46.201Z,101671.28
2022-08-07T02:27:08.654Z,101665.22
2022-08-07T02:30:32.734Z,101660.34
2022-08-07T02:34:10.911Z,101664.13
2022-08-07T02:37:44.205Z,101647.94
2022-08-07T02:41:08.012Z,101657.66
2022-08-07T02:44:34.737Z,101657.38
2022-08-07T02:48:01.606Z,101654.63
2022-08-07T02:51:42.921Z,101657.00
2022-08-07T02:55:27.331Z,101660.63
2022-08-07T02:58:53.962Z,101660.22
2022-08-07T03:02:17.585Z,101665.81
2022-08-07T03:05:39.654Z,101670.75
2022-08-07T03:09:07.496Z,101668.03
2022-08-07T03:12:33.712Z,101678.38
2022-08-07T03:16:01.087Z,101685.06
2022-08-07T03:19:28.914Z,101675.63
2022-08-07T03:23:00.474Z,101681.13
2022-08-07T03:26:26.969Z,101674.66
2022-08-07T03:29:51.116Z,101681.88
2022-08-07T03:33:17.984Z,101676.94
2022-08-07T03:36:42.826Z,101680.88
2022-08-07T03:40:15.524Z,101673.31
2022-08-07T03:43:40.346Z,101671.19
2022-08-07T03:47:19.729Z,101668.31
2022-08-07T03:50:56.188Z,101670.44
2022-08-07T03:54:35.488Z,101670.75
2022-08-07T03:58:35.388Z,101677.94
2022-08-07T04:01:48.087Z,101677.47
2022-08-07T04:05:15.370Z,101677.72
2022-08-07T04:08:38.467Z,101681.88
2022-08-07T04:12:27.143Z,101676.31
2022-08-07T04:15:42.588Z,101679.44
2022-08-07T04:19:15.019Z,101674.22
2022-08-07T04:22:53.490Z,101680.66
2022-08-07T04:26:28.678Z,101683.66
2022-08-07T04:30:01.565Z,101680.09
2022-08-07T04:33:32.939Z,101683.47
2022-08-07T04:37:00.975Z,101677.94
2022-08-07T04:40:22.956Z,101693.53
2022-08-07T04:44:13.119Z,101686.44
2022-08-07T04:47:57.030Z,101686.75
2022-08-07T04:51:29.419Z,101682.03
2022-08-07T04:55:00.951Z,101684.75
2022-08-07T04:58:48.788Z,101682.06
2022-08-07T05:02:22.165Z,101690.88
2022-08-07T05:05:54.009Z,101683.00
2022-08-07T05:09:43.046Z,101684.88
2022-08-07T05:14:54.300Z,101689.03
2022-08-07T05:17:00.129Z,101688.41
2022-08-07T05:20:27.350Z,101690.31
2022-08-07T05:23:58.647Z,101688.84
2022-08-07T05:28:02.672Z,101692.34
2022-08-07T05:31:06.522Z,101703.44
2022-08-07T05:34:31.047Z,101702.19
2022-08-07T05:38:08.572Z,101704.38
2022-08-07T05:42:01.564Z,101704.59
2022-08-07T05:45:46.228Z,101698.22
2022-08-07T05:49:01.406Z,101703.00
2022-08-07T05:52:34.845Z,101702.56
2022-08-07T05:56:05.631Z,101708.13
2022-08-07T05:59:47.304Z,101711.38
2022-08-07T06:03:17.187Z,101719.44
2022-08-07T06:06:46.277Z,101726.28
2022-08-07T06:10:15.467Z,101722.44
2022-08-07T06:14:12.077Z,101718.84
2022-08-07T06:17:22.829Z,101722.44
2022-08-07T06:22:14.367Z,101727.72
2022-08-07T06:24:57.852Z,101729.34
2022-08-07T06:28:27.799Z,101723.44
2022-08-07T06:31:50.894Z,101720.44
2022-08-07T06:35:18.097Z,101730.97
2022-08-07T06:38:51.279Z,101728.56
2022-08-07T06:42:35.050Z,101722.88
2022-08-07T06:46:03.322Z,101722.91
2022-08-07T06:49:28.559Z,101718.47
2022-08-07T06:52:54.034Z,101733.22
2022-08-07T06:56:39.430Z,101722.59
2022-08-07T07:00:27.537Z,101727.59
2022-08-07T07:04:04.242Z,101725.16
2022-08-07T07:07:59.772Z,101736.72
2022-08-07T07:12:09.168Z,101724.00
2022-08-07T07:15:03.303Z,101717.81
2022-08-07T07:18:33.091Z,101720.56
2022-08-07T07:22:34.479Z,101716.06
2022-08-07T07:26:33.964Z,101715.56
2022-08-07T07:30:09.294Z,101720.44
2022-08-07T07:33:23.634Z,101713.16
2022-08-07T07:36:54.031Z,101708.06
2022-08-07T07:40:18.326Z,101705.09
2022-08-07T07:44:13.600Z,101707.69
2022-08-07T07:47:26.722Z,101703.19
2022-08-07T07:50:52.191Z,101702.84
2022-08-07T07:54:19.572Z,101703.66
2022-08-07T07:57:53.201Z,101693.94
2022-08-07T08:02:05.091Z,101693.88
2022-08-07T08:04:58.402Z,101688.47
2022-08-07T08:08:34.720Z,101687.28
2022-08-07T08:12:05.000Z,101677.19
2022-08-07T08:15:28.550Z,101675.25
2022-08-07T08:20:16.197Z,101685.66
2022-08-07T08:23:15.565Z,101675.03
2022-08-07T08:26:54.295Z,101679.88
2022-08-07T08:30:19.461Z,101675.25
2022-08-07T08:33:49.000Z,101684.06
2022-08-07T08:37:59.196Z,101679.00
2022-08-07T08:41:00.438Z,101676.50
2022-08-07T08:44:31.570Z,101674.22
2022-08-07T08:48:10.925Z,101672.25
2022-08-07T08:52:00.892Z,101664.22
2022-08-07T08:55:54.560Z,101668.31
2022-08-07T08:59:18.591Z,101665.44
2022-08-07T09:02:49.628Z,101666.09
2022-08-07T09:06:27.652Z,101656.22
2022-08-07T09:10:02.548Z,101658.56
2022-08-07T09:13:37.059Z,101650.50
2022-08-07T09:17:13.697Z,101648.06
2022-08-07T09:20:58.460Z,101650.81
2022-08-07T09:24:58.837Z,101639.25
2022-08-07T09:30:01.070Z,101637.31
2022-08-07T09:32:26.340Z,101637.81
2022-08-07T09:36:01.327Z,101634.34
2022-08-07T09:39:55.212Z,101621.81
2022-08-07T09:44:03.112Z,101615.41
2022-08-07T09:47:52.192Z,101614.59
2022-08-07T09:52:16.132Z,101616.00
2022-08-07T09:55:29.274Z,101608.44
2022-08-07T09:59:37.132Z,101611.88
2022-08-07T10:04:04.898Z,101599.19
2022-08-07T10:07:52.548Z,101592.84
2022-08-07T10:12:01.612Z,101596.28
2022-08-07T10:15:27.855Z,101597.97
2022-08-07T10:19:11.140Z,101585.25
2022-08-07T10:22:56.163Z,101580.91
2022-08-07T10:26:35.274Z,101579.25
2022-08-07T10:30:06.890Z,101584.50
2022-08-07T10:34:06.309Z,101587.16
2022-08-07T10:37:59.978Z,101574.47
2022-08-07T10:41:51.790Z,101573.97
2022-08-07T10:45:57.677Z,101574.41
2022-08-07T10:49:49.250Z,101579.66
2022-08-07T10:53:21.452Z,101570.41
2022-08-07T10:57:00.131Z,101568.56
2022-08-07T11:00:39.114Z,101567.84
2022-08-07T11:04:31.608Z,101564.66
2022-08-07T11:08:03.930Z,101552.69
2022-08-07T11:11:35.990Z,101546.03
2022-08-07T11:15:14.481Z,101545.25
2022-08-07T11:18:43.780Z,101550.25
2022-08-07T11:22:26.289Z,101532.84
2022-08-07T11:25:53.911Z,101532.13
2022-08-07T11:29:41.202Z,101530.56
2022-08-07T11:33:14.245Z,101525.31
2022-08-07T11:36:47.047Z,101511.88
2022-08-07T11:40:22.389Z,101509.34
2022-08-07T11:44:12.093Z,101509.84
2022-08-07T11:47:59.216Z,101505.19
2022-08-07T11:51:44.958Z,101501.88
2022-08-07T11:55:19.015Z,101502.69
2022-08-07T12:00:07.572Z,101499.53
2022-08-07T12:03:45.767Z,101501.59
2022-08-07T12:07:27.692Z,101498.09
2022-08-07T12:11:20.717Z,101493.91
2022-08-07T12:14:55.561Z,101487.41
2022-08-07T12:18:29.874Z,101482.25
2022-08-07T12:22:37.957Z,101475.88
2022-08-07T12:26:06.138Z,101472.81
2022-08-07T12:29:44.287Z,101470.66
2022-08-07T12:33:23.287Z,101471.72
2022-08-07T12:36:54.628Z,101469.25
2022-08-07T12:40:47.129Z,101461.03
2022-08-07T12:44:15.337Z,101460.59
2022-08-07T12:47:45.060Z,101457.47
2022-08-07T12:51:17.557Z,101455.88
2022-08-07T12:54:54.628Z,101454.28
2022-08-07T12:58:20.934Z,101450.31
2022-08-07T13:02:10.141Z,101450.25
2022-08-07T13:06:02.847Z,101443.72
2022-08-07T13:10:36.721Z,101448.47
2022-08-07T13:13:50.278Z,101430.50
2022-08-07T13:17:21.247Z,101444.13
2022-08-07T13:20:51.138Z,101443.47
2022-08-07T13:24:25.838Z,101432.13
2022-08-07T13:28:14.012Z,101423.47
2022-08-07T13:31:55.207Z,101423.19
2022-08-07T13:36:00.333Z,101426.00
2022-08-07T13:39:28.712Z,101420.88
2022-08-07T13:43:11.789Z,101423.69
2022-08-07T13:46:48.882Z,101417.03
2022-08-07T13:50:34.858Z,101410.75
2022-08-07T13:54:03.499Z,101410.94
2022-08-07T13:57:37.680Z,101399.47
2022-08-07T14:01:09.376Z,101397.41
2022-08-07T14:04:36.133Z,101403.84
2022-08-07T14:08:01.211Z,101397.59
2022-08-07T14:11:29.247Z,101398.47
2022-08-07T14:15:23.821Z,101391.28
2022-08-07T14:18:49.787Z,101385.91
2022-08-07T14:22:34.358Z,101375.22
2022-08-07T14:26:08.647Z,101378.03
2022-08-07T14:33:44.879Z,101366.47
2022-08-07T14:37:16.122Z,101365.22
2022-08-07T14:40:39.458Z,101360.03
2022-08-07T14:44:11.946Z,101365.50
2022-08-07T14:47:41.152Z,101362.50
2022-08-07T14:55:01.688Z,101359.78
2022-08-07T14:58:31.086Z,101360.13
2022-08-07T15:01:58.230Z,101364.38
2022-08-07T15:05:26.758Z,101357.19
2022-08-07T15:08:54.926Z,101346.22
2022-08-07T15:12:25.801Z,101349.00
2022-08-07T15:15:57.738Z,101348.25
2022-08-07T15:23:20.285Z,101341.41
2022-08-07T15:26:47.570Z,101347.19
2022-08-07T15:30:16.680Z,101342.22
2022-08-07T15:33:45.357Z,101343.81
2022-08-07T15:37:12.632Z,101347.44
2022-08-07T15:41:22.981Z,101340.63
2022-08-07T15:44:52.018Z,101334.19
2022-08-07T15:48:31.659Z,101336.22
2022-08-07T15:55:23.225Z,101331.78
2022-08-07T15:59:06.713Z,101338.59
2022-08-07T16:02:46.670Z,101332.47
2022-08-07T16:06:10.275Z,101329.09
2022-08-07T16:09:42.582Z,101330.34
2022-08-07T16:13:58.983Z,101335.50
2022-08-07T16:18:02.449Z,101326.47
2022-08-07T16:21:43.960Z,101327.44
2022-08-07T16:25:22.837Z,101326.06
2022-08-07T16:29:18.474Z,101321.16
2022-08-07T16:32:46.186Z,101320.94
2022-08-07T16:36:20.474Z,101319.69
2022-08-07T16:40:04.338Z,101319.75
2022-08-07T16:44:03.908Z,101317.34
2022-08-07T16:48:30.075Z,101314.13
2022-08-07T16:52:51.030Z,101318.28
